Hypoluxo, Florida
Current Conditions -  °F | °C
As of 2:53 AM on Tuesday 27 Jan 2015 (Local Time) from KPBI Reporting Station
Clear Clear  
Wind Chill: 53°   Ceiling: Unl
Heat Index: 53°   Visibility: 10mi
Dew Point: 48°   Wind: 8mph
Humidity: 83%   Direction: 290°WNW
Pressure: 29.96"   Gusts: NA
Location:  26.5758°N, 80.0835°W
Report Text: KPBI 270753Z 29007KT 10SM CLR 12/09 A2996 RMK AO2 SLP143 T01170089
Loading
Personal Weather Stations






























Interactive Weather Map New forecast layout! Learn more

10-Day Weather Forecast

Advertisements
Track Severe Weather on mobile